Time;durP1;ratioP1;P1;durP2;ratioP2;P2;SDS_P1;SDS_P2;PMS_P1;PMS_P2;Temp;Humidity;BMP_temperature;BMP_pressure;BME280_temperature;BME280_humidity;BME280_pressure;Samples;Min_cycle;Max_cycle;Signal;HPM_P1;HPM_P2
2022/11/17 06:04:48;;;;;;;8.98;6.57;;;;;;;8.76;100.00;98589.84;4962246;28;20065;-77
2022/11/17 06:07:14;;;;;;;12.20;7.15;;;;;;;8.73;100.00;98580.31;4961395;28;20029;-77
2022/11/17 06:09:41;;;;;;;13.05;6.70;;;;;;;8.72;100.00;98587.09;4960600;28;21030;-77
2022/11/17 06:12:06;;;;;;;10.55;7.30;;;;;;;8.72;100.00;98583.53;5005563;23;20031;-77
2022/11/17 06:14:34;;;;;;;11.77;6.93;;;;;;;8.73;100.00;98583.13;4945822;28;20035;-77
2022/11/17 06:17:05;;;;;;;11.95;7.75;;;;;;;8.69;100.00;98587.16;4943901;28;20030;-77
2022/11/17 06:19:37;;;;;;;9.50;6.72;;;;;;;8.76;100.00;98587.06;4946883;28;20118;-77
2022/11/17 06:22:03;;;;;;;15.55;6.95;;;;;;;8.80;100.00;98589.78;4941105;28;20030;-78
2022/11/17 06:24:31;;;;;;;11.55;7.95;;;;;;;8.81;100.00;98591.38;4951793;28;20035;-77
2022/11/17 06:26:56;;;;;;;12.27;8.23;;;;;;;8.78;100.00;98570.69;4947979;28;20183;-77
2022/11/17 06:29:21;;;;;;;8.48;6.50;;;;;;;8.83;100.00;98566.63;4946581;28;20478;-77
2022/11/17 06:31:47;;;;;;;10.85;8.20;;;;;;;8.79;100.00;98563.09;4942314;28;20035;-77
2022/11/17 06:34:12;;;;;;;12.75;8.45;;;;;;;8.76;100.00;98550.78;4940223;28;20027;-77
2022/11/17 06:36:38;;;;;;;11.75;8.30;;;;;;;8.81;100.00;98569.03;4938622;28;20045;-77
2022/11/17 06:39:03;;;;;;;11.95;8.20;;;;;;;8.82;100.00;98570.63;4943361;28;20035;-77
2022/11/17 06:41:29;;;;;;;15.93;8.80;;;;;;;8.80;100.00;98573.84;4937619;28;20043;-77
2022/11/17 06:44:03;;;;;;;11.20;8.60;;;;;;;8.81;100.00;98566.25;4943689;28;20049;-77
2022/11/17 06:46:36;;;;;;;12.73;8.38;;;;;;;8.76;100.00;98564.75;4920809;29;20028;-77
2022/11/17 06:49:03;;;;;;;14.40;8.60;;;;;;;8.82;100.00;98563.06;4939162;28;20272;-77
2022/11/17 06:51:29;;;;;;;14.20;9.38;;;;;;;8.86;100.00;98554.63;4937420;28;20090;-77
2022/11/17 06:53:54;;;;;;;13.02;8.52;;;;;;;8.86;100.00;98563.00;4949210;28;20431;-77
2022/11/17 06:56:19;;;;;;;10.85;8.20;;;;;;;8.92;100.00;98547.38;4947669;28;20447;-78
2022/11/17 06:58:45;;;;;;;12.43;8.77;;;;;;;8.83;100.00;98556.25;4935627;28;20110;-77
2022/11/17 07:01:12;;;;;;;14.23;8.80;;;;;;;8.88;100.00;98557.78;4936606;28;20054;-76
2022/11/17 07:03:40;;;;;;;12.80;9.20;;;;;;;8.78;100.00;98550.38;4929627;28;20031;-77
2022/11/17 07:06:07;;;;;;;11.43;8.02;;;;;;;8.80;100.00;98545.16;4925976;28;20026;-75
2022/11/17 07:08:34;;;;;;;17.85;10.73;;;;;;;8.85;100.00;98551.03;4913189;28;20035;-75
2022/11/17 07:11:11;;;;;;;16.30;8.93;;;;;;;8.84;100.00;98551.47;4934803;28;20035;-75
2022/11/17 07:13:37;;;;;;;12.95;8.93;;;;;;;9.44;100.00;98552.41;4939272;29;20039;-74
2022/11/17 07:16:14;;;;;;;11.13;7.85;;;;;;;9.00;100.00;98548.78;4935904;28;20042;-75
2022/11/17 07:18:43;;;;;;;14.50;8.35;;;;;;;9.12;100.00;98545.41;4936294;28;20118;-75
2022/11/17 07:21:11;;;;;;;10.48;7.60;;;;;;;9.02;100.00;98546.38;4945249;28;20035;-75
2022/11/17 07:23:37;;;;;;;11.98;7.57;;;;;;;9.03;100.00;98553.53;4922650;28;20030;-75
2022/11/17 07:26:03;;;;;;;12.80;8.27;;;;;;;8.91;100.00;98556.94;4939514;28;20515;-76
2022/11/17 07:28:29;;;;;;;18.95;9.82;;;;;;;8.85;100.00;98550.25;4937186;28;20036;-77
2022/11/17 07:30:55;;;;;;;14.00;8.90;;;;;;;8.86;100.00;98549.84;4921292;28;20212;-77
2022/11/17 07:33:21;;;;;;;13.18;8.73;;;;;;;8.94;100.00;98548.50;4933984;28;20063;-76
2022/11/17 07:35:47;;;;;;;20.88;8.60;;;;;;;9.01;100.00;98549.59;4923612;29;20587;-75
2022/11/17 07:38:12;;;;;;;11.93;8.55;;;;;;;9.00;100.00;98553.59;4940587;28;20345;-76
2022/11/17 07:40:39;;;;;;;11.20;7.75;;;;;;;8.95;100.00;98558.44;4938137;28;20042;-76
2022/11/17 07:43:04;;;;;;;12.82;7.75;;;;;;;8.99;100.00;98566.75;4933604;28;20129;-77
2022/11/17 07:45:29;;;;;;;10.80;7.63;;;;;;;9.03;100.00;98563.94;4937181;28;20866;-77
2022/11/17 07:47:56;;;;;;;10.05;7.22;;;;;;;9.05;100.00;98575.44;4937193;28;20031;-76
2022/11/17 07:50:23;;;;;;;12.20;8.10;;;;;;;8.98;100.00;98562.41;4930371;28;20035;-75
2022/11/17 07:52:50;;;;;;;10.38;6.93;;;;;;;9.04;100.00;98579.44;4940368;29;20035;-77
2022/11/17 07:55:16;;;;;;;10.00;7.25;;;;;;;9.03;100.00;98567.50;4917937;29;20279;-77
2022/11/17 07:57:42;;;;;;;13.48;7.72;;;;;;;9.04;100.00;98573.88;4932476;28;20051;-77
2022/11/17 08:00:07;;;;;;;10.85;7.65;;;;;;;9.07;100.00;98579.41;4942325;28;20033;-76
2022/11/17 08:02:33;;;;;;;13.60;7.15;;;;;;;9.04;100.00;98577.44;4937025;28;20364;-78
2022/11/17 08:04:58;;;;;;;10.02;6.45;;;;;;;9.05;100.00;98590.19;4933557;28;20031;-75
2022/11/17 08:07:23;;;;;;;6.70;5.57;;;;;;;9.09;100.00;98592.94;4934979;28;20461;-75
2022/11/17 08:09:49;;;;;;;9.23;5.97;;;;;;;9.12;100.00;98584.47;4935631;28;20152;-76
2022/11/17 08:12:14;;;;;;;6.70;5.95;;;;;;;9.14;100.00;98584.84;4930018;28;20034;-75
2022/11/17 08:14:39;;;;;;;9.30;5.70;;;;;;;9.23;100.00;98586.31;4935650;28;20483;-76
2022/11/17 08:17:05;;;;;;;10.80;5.47;;;;;;;9.16;100.00;98576.84;4937892;28;20035;-75
2022/11/17 08:19:30;;;;;;;9.75;5.95;;;;;;;9.23;100.00;98580.72;4935164;28;20038;-76
2022/11/17 08:21:55;;;;;;;10.48;5.95;;;;;;;9.22;100.00;98582.72;4934644;28;20031;-75
2022/11/17 08:24:21;;;;;;;9.52;5.82;;;;;;;9.24;100.00;98585.88;4933073;28;22164;-75
2022/11/17 08:26:46;;;;;;;7.95;5.72;;;;;;;9.25;100.00;98592.25;4932840;29;20561;-75
2022/11/17 08:29:11;;;;;;;5.68;4.72;;;;;;;9.31;100.00;98590.56;4937271;28;20600;-75
2022/11/17 08:31:37;;;;;;;9.75;4.88;;;;;;;9.29;100.00;98581.81;4936067;28;20136;-75
2022/11/17 08:34:03;;;;;;;8.27;4.57;;;;;;;9.33;100.00;98593.72;4934986;29;20038;-75
2022/11/17 08:36:28;;;;;;;13.05;7.13;;;;;;;9.32;100.00;98597.72;4937750;28;20486;-75
2022/11/17 08:38:53;;;;;;;9.40;4.78;;;;;;;9.35;100.00;98599.66;4934521;28;20042;-75
2022/11/17 08:41:20;;;;;;;9.95;5.03;;;;;;;9.33;100.00;98600.06;4915506;29;20554;-75
2022/11/17 08:43:46;;;;;;;9.52;4.70;;;;;;;9.34;100.00;98600.88;4940837;29;20487;-75
2022/11/17 08:46:12;;;;;;;8.95;4.75;;;;;;;9.35;100.00;98608.03;4918732;29;20054;-75
2022/11/17 08:48:37;;;;;;;9.50;4.60;;;;;;;9.36;100.00;98606.84;4939934;29;20067;-75
2022/11/17 08:51:05;;;;;;;8.30;4.47;;;;;;;9.38;100.00;98609.97;4934013;29;20106;-75
2022/11/17 08:53:30;;;;;;;8.45;4.32;;;;;;;9.40;100.00;98610.31;4937777;28;20027;-75
2022/11/17 08:55:55;;;;;;;6.32;4.18;;;;;;;9.44;100.00;98618.66;4921195;29;20086;-76
2022/11/17 08:58:20;;;;;;;9.02;5.43;;;;;;;9.45;100.00;98621.03;4937685;29;20050;-75
2022/11/17 09:00:46;;;;;;;7.68;3.70;;;;;;;9.43;100.00;98617.09;4940130;28;20944;-75
2022/11/17 09:03:12;;;;;;;7.05;3.88;;;;;;;9.45;100.00;98621.03;4921452;29;20039;-75
2022/11/17 09:05:39;;;;;;;8.15;4.25;;;;;;;9.49;100.00;98630.13;4938102;29;20034;-77
2022/11/17 09:08:05;;;;;;;8.55;4.05;;;;;;;9.50;100.00;98620.53;4933485;28;20067;-77
2022/11/17 09:10:30;;;;;;;5.20;3.80;;;;;;;9.59;100.00;98635.94;4935917;28;20593;-76
2022/11/17 09:12:56;;;;;;;4.72;3.15;;;;;;;9.63;100.00;98629.06;4934434;28;20059;-75
2022/11/17 09:15:23;;;;;;;6.45;3.42;;;;;;;9.65;100.00;98625.88;4937075;29;20030;-76
2022/11/17 09:17:49;;;;;;;5.53;2.95;;;;;;;9.63;100.00;98634.66;4938556;29;20031;-76
2022/11/17 09:20:16;;;;;;;12.23;4.20;;;;;;;9.70;100.00;98628.97;4920761;28;20138;-76
2022/11/17 09:22:41;;;;;;;8.57;3.22;;;;;;;9.66;100.00;98627.47;4922032;29;20048;-76
2022/11/17 09:25:07;;;;;;;5.55;2.83;;;;;;;9.69;100.00;98624.56;4938451;28;20039;-75
2022/11/17 09:27:33;;;;;;;5.93;2.60;;;;;;;9.74;100.00;98635.28;4936084;28;20031;-75
2022/11/17 09:29:58;;;;;;;5.32;3.08;;;;;;;9.72;100.00;98631.34;4936067;29;20059;-76
2022/11/17 09:32:24;;;;;;;5.20;2.80;;;;;;;9.71;100.00;98635.34;4940140;28;20062;-76
2022/11/17 09:34:49;;;;;;;5.28;2.35;;;;;;;9.71;100.00;98635.34;4940132;28;20120;-75
2022/11/17 09:37:14;;;;;;;7.30;2.42;;;;;;;9.73;100.00;98641.28;4938025;29;20045;-77
2022/11/17 09:39:40;;;;;;;6.03;2.83;;;;;;;9.74;100.00;98640.09;4938712;29;20031;-76
2022/11/17 09:42:05;;;;;;;3.83;2.72;;;;;;;9.75;100.00;98644.44;4932621;28;20475;-76
2022/11/17 09:44:38;;;;;;;7.70;2.97;;;;;;;9.74;100.00;98656.84;4920157;29;20046;-76
2022/11/17 09:47:25;;;;;;;7.50;2.60;;;;;;;9.75;100.00;98647.22;4932577;29;20064;-75
2022/11/17 09:50:01;;;;;;;7.72;2.50;;;;;;;9.74;100.00;98654.06;4936851;28;20093;-75
2022/11/17 09:52:52;;;;;;;5.80;2.47;;;;;;;9.79;100.00;98653.53;4943187;29;20542;-75
2022/11/17 09:55:30;;;;;;;5.72;2.20;;;;;;;9.77;100.00;98658.78;4939902;28;20054;-76
2022/11/17 09:58:08;;;;;;;7.13;2.38;;;;;;;9.81;100.00;98656.69;4934609;28;20057;-76
2022/11/17 10:00:37;;;;;;;6.63;3.03;;;;;;;9.79;100.00;98667.50;4939148;28;20387;-76
2022/11/17 10:03:10;;;;;;;8.73;2.20;;;;;;;9.81;100.00;98667.88;4936921;29;20116;-77
2022/11/17 10:05:36;;;;;;;6.18;3.05;;;;;;;9.81;100.00;98669.88;4934528;28;20544;-75
2022/11/17 10:08:07;;;;;;;4.90;2.38;;;;;;;9.82;100.00;98674.25;4942947;29;20121;-76
2022/11/17 10:10:46;;;;;;;3.95;2.45;;;;;;;9.82;100.00;98675.03;4936873;28;20061;-75
2022/11/17 10:13:25;;;;;;;9.43;1.73;;;;;;;9.84;100.00;98672.59;4935958;29;20640;-75
2022/11/17 10:15:58;;;;;;;5.47;1.85;;;;;;;9.86;100.00;98677.78;4943132;28;20502;-75
2022/11/17 10:18:24;;;;;;;7.75;2.45;;;;;;;9.91;100.00;98671.72;4933911;28;20035;-75
2022/11/17 10:20:50;;;;;;;5.00;2.92;;;;;;;9.86;100.00;98677.78;4941652;28;20043;-76
2022/11/17 10:23:18;;;;;;;5.90;2.60;;;;;;;9.83;100.00;98687.81;4935346;28;20046;-77
2022/11/17 10:25:46;;;;;;;4.35;1.70;;;;;;;9.81;100.00;98690.22;4939109;28;20494;-77
2022/11/17 10:28:30;;;;;;;11.38;2.42;;;;;;;9.80;100.00;98687.84;4940442;29;20034;-75
2022/11/17 10:31:01;;;;;;;2.78;1.95;;;;;;;9.81;100.00;98684.63;4939684;28;20055;-75
2022/11/17 10:33:32;;;;;;;3.92;1.50;;;;;;;9.87;100.00;98696.13;4929605;28;20531;-75
2022/11/17 10:35:58;;;;;;;7.32;1.70;;;;;;;9.85;100.00;98695.75;4942469;28;20035;-75
2022/11/17 10:38:27;;;;;;;3.95;1.42;;;;;;;9.84;100.00;98694.94;4938656;29;20390;-75
2022/11/17 10:40:54;;;;;;;7.03;1.60;;;;;;;9.84;100.00;98694.94;4937623;29;20577;-75
2022/11/17 10:43:24;;;;;;;6.20;1.40;;;;;;;9.83;100.00;98696.19;4921465;29;20027;-76
2022/11/17 10:45:53;;;;;;;5.25;1.63;;;;;;;9.86;100.00;98697.31;4922777;29;20495;-76
2022/11/17 10:48:23;;;;;;;2.53;1.42;;;;;;;9.86;100.00;98700.91;4924462;29;20042;-76
2022/11/17 10:51:13;;;;;;;2.67;1.52;;;;;;;9.83;100.00;98701.00;4926277;28;20102;-77
2022/11/17 10:53:43;;;;;;;3.13;1.10;;;;;;;9.81;100.00;98701.41;4926322;28;20139;-77
2022/11/17 10:56:14;;;;;;;2.88;1.25;;;;;;;9.83;100.00;98704.56;4934509;28;20561;-76
2022/11/17 10:59:14;;;;;;;4.30;1.50;;;;;;;9.87;100.00;98708.09;4941879;28;20760;-77
2022/11/17 11:01:45;;;;;;;3.80;1.60;;;;;;;9.84;100.00;98706.13;4924496;29;20031;-76
2022/11/17 11:04:34;;;;;;;4.53;1.42;;;;;;;9.90;100.00;98718.41;4938399;28;20221;-76
2022/11/17 11:07:20;;;;;;;3.47;1.80;;;;;;;9.88;100.00;98714.47;4937998;29;20059;-75
2022/11/17 11:10:02;;;;;;;3.95;1.40;;;;;;;9.90;100.00;98707.22;4935739;28;21274;-78
2022/11/17 11:12:58;;;;;;;4.95;1.60;;;;;;;9.91;100.00;98710.81;4940101;28;20113;-78
2022/11/17 11:15:33;;;;;;;1.67;1.00;;;;;;;9.87;100.00;98722.06;4898313;29;20574;-78
2022/11/17 11:17:59;;;;;;;3.88;1.50;;;;;;;9.88;100.00;98718.03;4933601;29;20601;-76
2022/11/17 11:20:59;;;;;;;4.40;1.52;;;;;;;9.88;100.00;98718.03;4939615;28;20068;-78
2022/11/17 11:24:06;;;;;;;3.40;1.20;;;;;;;9.86;100.00;98725.28;4909212;29;20055;-77
2022/11/17 11:26:46;;;;;;;4.32;1.50;;;;;;;9.86;100.00;98737.22;4911550;28;20078;-77
2022/11/17 11:29:32;;;;;;;8.55;1.80;;;;;;;9.76;100.00;98738.19;4937605;28;20070;-78
2022/11/17 11:32:23;;;;;;;4.22;1.42;;;;;;;9.77;100.00;98734.22;4938628;28;20458;-78
2022/11/17 11:35:13;;;;;;;4.28;1.90;;;;;;;9.75;100.00;98736.63;4926458;29;20178;-77
2022/11/17 11:38:03;;;;;;;8.35;2.22;;;;;;;9.80;100.00;98735.34;4938754;28;20035;-77
2022/11/17 11:40:36;;;;;;;2.15;1.13;;;;;;;9.73;100.00;98734.25;4941443;28;20457;-78
2022/11/17 11:43:19;;;;;;;;;;;;;;;9.72;100.00;98743.09;4939296;28;20486;-78
2022/11/17 11:46:14;;;;;;;6.43;1.70;;;;;;;9.75;100.00;98743.00;4938067;28;20663;-77
2022/11/17 11:48:39;;;;;;;5.22;2.00;;;;;;;9.74;100.00;98746.25;4936225;28;20043;-76
2022/11/17 11:51:17;;;;;;;4.00;1.23;;;;;;;9.81;100.00;98746.13;4937288;28;20038;-77
2022/11/17 11:54:01;;;;;;;4.28;1.95;;;;;;;9.79;100.00;98754.13;4937266;29;20463;-77
2022/11/17 11:56:32;;;;;;;3.10;1.35;;;;;;;9.75;100.00;98754.19;4934997;28;20090;-77
2022/11/17 11:59:02;;;;;;;6.30;2.15;;;;;;;9.73;100.00;98747.44;4942554;28;20110;-77
2022/11/17 12:01:56;;;;;;;5.60;1.50;;;;;;;9.77;100.00;98750.97;4935504;28;20329;-79
2022/11/17 12:04:34;;;;;;;4.70;2.10;;;;;;;9.80;100.00;98755.69;4909202;28;20544;-78
2022/11/17 12:07:18;;;;;;;8.15;1.95;;;;;;;9.76;100.00;98758.56;4923113;28;20046;-77
2022/11/17 12:09:57;;;;;;;6.70;2.25;;;;;;;9.77;100.00;98762.16;4932136;28;20713;-77
2022/11/17 12:12:32;;;;;;;5.38;1.67;;;;;;;9.82;100.00;98769.25;4937094;28;20043;-77
2022/11/17 12:15:19;;;;;;;3.92;2.00;;;;;;;9.83;100.00;98765.25;4941444;28;20041;-76
2022/11/17 12:17:51;;;;;;;6.78;2.00;;;;;;;9.80;100.00;98764.06;4930877;28;20035;-77
2022/11/17 12:20:51;;;;;;;4.53;1.75;;;;;;;9.79;100.00;98764.53;4933442;28;20067;-77
2022/11/17 12:23:57;;;;;;;2.67;1.38;;;;;;;9.79;100.00;98759.72;4922818;28;20680;-76
2022/11/17 12:26:28;;;;;;;3.78;1.35;;;;;;;9.80;100.00;98768.88;4924692;28;20036;-77
2022/11/17 12:29:19;;;;;;;5.70;1.85;;;;;;;9.83;100.00;98771.63;4932692;28;20039;-76
2022/11/17 12:31:49;;;;;;;3.45;1.40;;;;;;;9.81;100.00;98774.06;4937257;28;20053;-77
2022/11/17 12:34:22;;;;;;;6.05;1.80;;;;;;;9.78;100.00;98772.09;4938784;28;20421;-78
2022/11/17 12:37:08;;;;;;;5.57;1.92;;;;;;;9.84;100.00;98766.81;4937579;28;20034;-78
2022/11/17 12:39:52;;;;;;;5.75;1.60;;;;;;;9.85;100.00;98766.41;4941336;28;20049;-78
2022/11/17 12:42:17;;;;;;;2.20;1.67;;;;;;;9.83;100.00;98766.03;4931119;28;20042;-77
2022/11/17 12:45:07;;;;;;;4.38;2.15;;;;;;;9.84;100.00;98778.00;4935667;28;20035;-77
2022/11/17 12:47:43;;;;;;;9.55;2.00;;;;;;;9.79;100.00;98782.06;4934176;28;20019;-77
2022/11/17 12:50:17;;;;;;;3.85;1.52;;;;;;;9.83;100.00;98777.22;4930659;28;20506;-77
2022/11/17 12:52:53;;;;;;;3.15;1.35;;;;;;;9.83;100.00;98777.22;4933010;28;20479;-76
2022/11/17 12:55:28;;;;;;;5.05;2.00;;;;;;;9.91;100.00;98789.84;4939131;28;20114;-76
2022/11/17 12:58:23;;;;;;;4.07;1.48;;;;;;;9.85;100.00;98785.97;4931292;29;20476;-76
2022/11/17 13:01:07;;;;;;;3.75;1.48;;;;;;;9.90;100.00;98791.06;4937601;29;20511;-76
2022/11/17 13:03:38;;;;;;;6.03;1.40;;;;;;;9.94;100.00;98791.00;4944026;28;20024;-76
2022/11/17 13:06:13;;;;;;;4.30;1.27;;;;;;;9.91;100.00;98798.25;4945111;29;20042;-76
2022/11/17 13:08:38;;;;;;;3.95;2.15;;;;;;;9.90;100.00;98802.22;4942616;29;20034;-76
2022/11/17 13:11:13;;;;;;;3.00;1.60;;;;;;;9.88;100.00;98799.06;4945518;28;20085;-76
2022/11/17 13:13:40;;;;;;;3.90;1.42;;;;;;;9.97;100.00;98816.09;4931987;28;20579;-76
2022/11/17 13:16:15;;;;;;;8.43;1.92;;;;;;;9.89;100.00;98820.22;4911556;29;21184;-77
2022/11/17 13:18:41;;;;;;;5.05;1.77;;;;;;;10.24;100.00;98806.06;4932111;28;20481;-76
2022/11/17 13:21:34;;;;;;;3.88;1.35;;;;;;;10.05;100.00;98815.97;4928541;28;20043;-76
2022/11/17 13:23:59;;;;;;;7.40;1.98;;;;;;;9.98;100.00;98816.88;4912282;29;20048;-77
2022/11/17 13:26:37;;;;;;;5.18;1.27;;;;;;;10.00;100.00;98819.28;4915140;29;20050;-76
2022/11/17 13:29:13;;;;;;;2.92;1.60;;;;;;;9.99;100.00;98815.66;4918536;29;20035;-76
2022/11/17 13:31:38;;;;;;;2.60;1.50;;;;;;;9.97;100.00;98816.09;4913785;29;23160;-75
2022/11/17 13:34:12;;;;;;;4.00;1.50;;;;;;;9.99;100.00;98815.66;4925607;28;20505;-77
2022/11/17 13:36:55;;;;;;;3.28;1.13;;;;;;;9.95;100.00;98821.34;4918752;29;20031;-75
2022/11/17 13:39:21;;;;;;;6.78;1.58;;;;;;;9.97;100.00;98834.84;4916041;29;20526;-75
2022/11/17 13:41:47;;;;;;;2.78;1.25;;;;;;;9.96;100.00;98836.09;4916655;29;20027;-76
2022/11/17 13:44:22;;;;;;;5.55;2.38;;;;;;;9.94;100.00;98830.91;4909596;29;20617;-76
2022/11/17 13:46:47;;;;;;;3.45;1.52;;;;;;;9.94;100.00;98827.34;4922392;29;20035;-76
2022/11/17 13:49:33;;;;;;;9.95;1.70;;;;;;;9.89;100.00;98836.22;4929843;29;20035;-75
2022/11/17 13:51:58;;;;;;;2.95;1.67;;;;;;;9.87;100.00;98835.84;4929438;28;20028;-76
2022/11/17 13:54:24;;;;;;;5.55;1.90;;;;;;;9.81;100.00;98835.53;4915804;29;20138;-75
2022/11/17 13:56:53;;;;;;;3.35;1.80;;;;;;;9.87;100.00;98845.00;4911489;29;20038;-75
2022/11/17 13:59:36;;;;;;;9.48;2.10;;;;;;;9.87;100.00;98844.22;4916184;29;20043;-76
2022/11/17 14:02:19;;;;;;;7.75;1.80;;;;;;;9.96;100.00;98839.66;4915708;29;20068;-75
2022/11/17 14:05:06;;;;;;;3.60;1.60;;;;;;;9.92;100.00;98841.72;4917249;29;20035;-75
2022/11/17 14:07:34;;;;;;;6.50;2.08;;;;;;;9.91;100.00;98833.78;4918656;29;20067;-75
2022/11/17 14:10:18;;;;;;;3.15;1.63;;;;;;;9.94;100.00;98844.88;4914979;29;20296;-75
2022/11/17 14:12:44;;;;;;;4.68;1.40;;;;;;;9.89;100.00;98837.00;4918833;28;20040;-75
2022/11/17 14:15:19;;;;;;;5.13;1.67;;;;;;;9.92;100.00;98838.94;4938910;28;20250;-75
2022/11/17 14:17:57;;;;;;;2.03;1.38;;;;;;;9.86;100.00;98845.44;4935562;28;20142;-75
2022/11/17 14:20:22;;;;;;;6.68;1.50;;;;;;;9.88;100.00;98845.78;4939184;28;20063;-75
2022/11/17 14:23:10;;;;;;;5.60;1.65;;;;;;;9.82;100.00;98859.44;4936101;28;20614;-75
2022/11/17 14:25:44;;;;;;;8.23;3.50;;;;;;;9.81;100.00;98862.69;4937704;28;20499;-75
2022/11/17 14:28:16;;;;;;;6.63;1.70;;;;;;;9.88;100.00;98854.97;4922931;29;20039;-75
2022/11/17 14:30:45;;;;;;;3.65;1.77;;;;;;;9.86;100.00;98854.59;4932243;28;20110;-76
2022/11/17 14:33:11;;;;;;;5.18;1.83;;;;;;;9.81;100.00;98855.09;4933181;28;20046;-75
2022/11/17 14:35:36;;;;;;;4.13;1.92;;;;;;;9.88;100.00;98852.16;4935224;28;20434;-75
2022/11/17 14:38:02;;;;;;;4.18;1.85;;;;;;;9.84;100.00;98867.41;4939872;28;20172;-75
2022/11/17 14:40:27;;;;;;;3.97;1.73;;;;;;;9.86;100.00;98865.00;4941549;28;20036;-75
2022/11/17 14:42:53;;;;;;;3.72;2.22;;;;;;;9.80;100.00;98867.44;4940946;28;20031;-75
2022/11/17 14:45:18;;;;;;;1.70;1.40;;;;;;;9.76;100.00;98875.91;4935508;28;20044;-75
2022/11/17 14:47:43;;;;;;;4.75;1.50;;;;;;;9.87;100.00;98881.34;4920662;29;20027;-75
2022/11/17 14:50:14;;;;;;;3.63;1.70;;;;;;;9.73;100.00;98875.94;4943352;28;20027;-75
2022/11/17 14:52:42;;;;;;;3.60;1.38;;;;;;;9.82;100.00;98884.59;4938616;28;20058;-75
2022/11/17 14:55:12;;;;;;;4.75;1.73;;;;;;;9.76;100.00;98878.69;4939203;28;20042;-75
2022/11/17 14:57:37;;;;;;;2.45;1.67;;;;;;;9.73;100.00;98878.75;4944417;28;20280;-75
2022/11/17 15:00:05;;;;;;;3.20;1.70;;;;;;;9.75;100.00;98884.72;4937440;28;20145;-75
2022/11/17 15:02:31;;;;;;;5.00;1.60;;;;;;;9.71;100.00;98892.34;4937845;28;20121;-75
2022/11/17 15:04:58;;;;;;;5.03;2.03;;;;;;;9.67;100.00;98897.97;4939399;28;20118;-76
2022/11/17 15:07:24;;;;;;;3.50;1.70;;;;;;;9.68;100.00;98898.78;4936488;28;20055;-76
2022/11/17 15:09:49;;;;;;;4.78;1.85;;;;;;;9.75;100.00;98904.25;4934824;28;20418;-76
2022/11/17 15:12:15;;;;;;;7.93;2.75;;;;;;;9.76;100.00;98905.81;4936111;28;20067;-76
2022/11/17 15:14:40;;;;;;;3.30;1.50;;;;;;;9.84;100.00;98903.72;4928873;28;20039;-76
2022/11/17 15:17:05;;;;;;;12.73;2.70;;;;;;;9.80;100.00;98909.38;4922903;28;20063;-76
2022/11/17 15:19:31;;;;;;;5.75;1.70;;;;;;;9.70;100.00;98907.53;4941172;28;20031;-76
2022/11/17 15:21:56;;;;;;;2.58;1.60;;;;;;;9.73;100.00;98917.84;4936421;28;20031;-75
2022/11/17 15:24:22;;;;;;;4.95;1.77;;;;;;;9.68;100.00;98909.97;4923500;28;20030;-75
2022/11/17 15:26:47;;;;;;;5.97;2.13;;;;;;;9.79;100.00;98921.78;4936580;28;20095;-76
2022/11/17 15:29:16;;;;;;;9.27;2.92;;;;;;;9.74;100.00;98919.47;4940580;28;20038;-76
2022/11/17 15:31:42;;;;;;;15.90;7.30;;;;;;;9.63;100.00;98925.16;4940953;28;20039;-76
2022/11/17 15:34:09;;;;;;;15.10;10.63;;;;;;;9.59;100.00;98924.41;4951790;28;20079;-75
2022/11/17 15:36:34;;;;;;;6.03;2.90;;;;;;;9.55;100.00;98934.88;4940019;29;20083;-76
2022/11/17 15:39:00;;;;;;;5.40;2.50;;;;;;;9.49;100.00;98928.94;4940391;29;20088;-76
2022/11/17 15:41:25;;;;;;;5.22;2.33;;;;;;;9.48;100.00;98932.94;4947807;29;20031;-76
2022/11/17 15:43:50;;;;;;;5.22;3.22;;;;;;;9.68;100.00;98930.31;4946067;28;20031;-76
2022/11/17 15:46:17;;;;;;;5.57;3.83;;;;;;;9.55;100.00;98941.25;4921917;28;20031;-76
2022/11/17 15:48:44;;;;;;;6.78;5.93;;;;;;;9.53;100.00;98928.91;4937353;28;20042;-76
2022/11/17 15:51:15;;;;;;;4.63;3.35;;;;;;;9.53;100.00;98938.06;4941925;28;20157;-76
2022/11/17 15:53:41;;;;;;;6.40;3.90;;;;;;;9.50;100.00;98944.47;4925735;29;20081;-75
2022/11/17 15:56:10;;;;;;;10.38;5.15;;;;;;;9.46;100.00;98948.53;4937296;28;20039;-76
2022/11/17 15:58:37;;;;;;;3.55;2.85;;;;;;;9.46;100.00;98949.31;4931046;28;20506;-76
2022/11/17 16:01:14;;;;;;;10.32;4.78;;;;;;;9.53;100.00;98957.63;4943559;29;20032;-76
2022/11/17 16:03:41;;;;;;;9.00;4.28;;;;;;;9.50;100.00;98952.84;4942101;29;20086;-75
2022/11/17 16:06:07;;;;;;;8.70;6.13;;;;;;;9.78;100.00;98950.91;4940694;28;20035;-76
2022/11/17 16:08:33;;;;;;;13.70;8.80;;;;;;;9.65;100.00;98949.88;4928045;28;20050;-76
2022/11/17 16:10:59;;;;;;;13.50;8.48;;;;;;;9.64;100.00;98956.69;4918973;29;20570;-75
2022/11/17 16:13:24;;;;;;;16.08;11.00;;;;;;;9.60;100.00;98964.34;4917162;29;20138;-75
2022/11/17 16:15:50;;;;;;;22.55;13.73;;;;;;;9.56;100.00;98965.16;4907361;29;20130;-76
2022/11/17 16:18:16;;;;;;;11.68;8.07;;;;;;;9.67;100.00;98961.44;4907127;29;20039;-75
2022/11/17 16:20:44;;;;;;;6.78;5.00;;;;;;;9.64;100.00;98968.66;4913420;28;20039;-75
2022/11/17 16:23:10;;;;;;;10.20;5.03;;;;;;;9.66;100.00;98973.84;4916931;29;20459;-75
2022/11/17 16:25:44;;;;;;;7.72;3.60;;;;;;;9.62;100.00;98975.88;4918980;29;20059;-75
2022/11/17 16:28:11;;;;;;;7.82;2.88;;;;;;;9.65;100.00;98970.22;4920097;29;20036;-75
2022/11/17 16:30:36;;;;;;;4.47;3.03;;;;;;;9.58;100.00;98978.72;4909518;29;20042;-74
2022/11/17 16:33:02;;;;;;;5.63;3.53;;;;;;;9.60;100.00;98981.09;4912399;29;20396;-75
2022/11/17 16:35:28;;;;;;;7.20;2.85;;;;;;;9.65;100.00;98983.41;4914230;29;20032;-77
2022/11/17 16:37:54;;;;;;;7.97;4.18;;;;;;;9.63;100.00;98983.03;4912924;29;20028;-75
2022/11/17 16:40:19;;;;;;;3.97;3.13;;;;;;;9.63;100.00;98985.81;4911782;29;20086;-75
2022/11/17 16:42:45;;;;;;;5.53;4.00;;;;;;;9.56;100.00;98995.09;4913334;29;20035;-76
2022/11/17 16:45:10;;;;;;;7.25;3.88;;;;;;;9.55;100.00;98993.53;4924409;28;20312;-75
2022/11/17 16:47:36;;;;;;;6.70;3.80;;;;;;;9.55;100.00;99001.91;4908759;29;20126;-75
2022/11/17 16:50:02;;;;;;;8.73;3.35;;;;;;;9.51;100.00;98985.19;4915797;29;20114;-75
2022/11/17 16:52:28;;;;;;;4.50;3.05;;;;;;;9.60;100.00;98997.84;4915222;29;20508;-75
2022/11/17 16:54:53;;;;;;;4.50;3.28;;;;;;;9.57;100.00;99005.03;4913172;29;20122;-74
2022/11/17 16:57:19;;;;;;;6.15;3.63;;;;;;;9.58;100.00;99006.63;4920423;29;20039;-77
2022/11/17 16:59:44;;;;;;;8.10;3.85;;;;;;;9.62;100.00;99003.81;4912108;29;20444;-75
2022/11/17 17:02:11;;;;;;;6.30;3.88;;;;;;;9.60;100.00;99003.44;4916527;29;20594;-75
2022/11/17 17:04:37;;;;;;;8.13;4.70;;;;;;;9.63;100.00;99008.97;4918315;29;20023;-75
2022/11/17 17:07:02;;;;;;;9.40;3.50;;;;;;;9.67;100.00;99014.50;4912988;29;20399;-75
2022/11/17 17:09:27;;;;;;;11.13;5.63;;;;;;;9.63;100.00;99010.97;4913324;29;20039;-75
2022/11/17 17:11:53;;;;;;;11.02;6.28;;;;;;;9.57;100.00;99008.66;4914366;29;20169;-75
2022/11/17 17:14:18;;;;;;;4.15;3.45;;;;;;;9.60;100.00;99014.63;4933202;28;20537;-75
2022/11/17 17:16:44;;;;;;;5.93;3.70;;;;;;;9.67;100.00;99025.69;4929358;28;20126;-76
2022/11/17 17:19:11;;;;;;;8.13;4.13;;;;;;;9.61;100.00;99032.94;4935479;28;20043;-75
2022/11/17 17:21:38;;;;;;;5.43;4.00;;;;;;;9.61;100.00;99038.53;4938395;28;20361;-75
2022/11/17 17:24:04;;;;;;;8.77;4.90;;;;;;;9.49;100.00;99021.09;4933837;28;20118;-76
2022/11/17 17:26:31;;;;;;;7.50;4.72;;;;;;;9.56;100.00;99023.03;4918948;28;20122;-75
2022/11/17 17:28:59;;;;;;;5.30;4.80;;;;;;;9.61;100.00;99032.94;4940604;28;20035;-75
2022/11/17 17:31:29;;;;;;;5.78;3.05;;;;;;;9.64;100.00;99035.69;4933973;28;20023;-75
2022/11/17 17:33:54;;;;;;;8.38;3.63;;;;;;;9.67;100.00;99039.66;4934318;29;21272;-75
2022/11/17 17:36:22;;;;;;;10.00;8.68;;;;;;;9.63;100.00;99036.91;4930651;29;20066;-75
2022/11/17 17:38:49;;;;;;;10.32;4.22;;;;;;;9.71;100.00;99043.19;4931622;29;20038;-76
2022/11/17 17:41:17;;;;;;;5.30;3.40;;;;;;;9.59;100.00;99049.31;4935287;29;20390;-76
2022/11/17 17:43:45;;;;;;;5.45;3.85;;;;;;;9.65;100.00;99061.63;4933273;29;20131;-75
2022/11/17 17:46:15;;;;;;;4.35;3.20;;;;;;;9.59;100.00;99063.28;4930959;28;20033;-75
2022/11/17 17:48:43;;;;;;;5.00;2.50;;;;;;;9.61;100.00;99060.88;4931929;29;20427;-75
2022/11/17 17:51:10;;;;;;;4.93;2.55;;;;;;;9.65;100.00;99058.84;4937375;28;20023;-75